Crescent, Iowa
Current Conditions -  °F | °C
As of 9:52 PM on Saturday 22 Nov 2014 (Local Time) from KOMA Reporting Station
Overcast Overcast  
Wind Chill: 54°   Ceiling: 1300
Heat Index: 54°   Visibility: 10mi
Dew Point: 52°   Wind: 14mph
Humidity: 93%   Direction: 150°SSE
Pressure: 29.59"   Gusts: NA
Location:  41.37°N, 95.86°W
Report Text: KOMA 230352Z 15012KT 10SM BKN013 OVC019 12/11 A2959 RMK AO2 SLP024 T01220111
Loading
Personal Weather Stations






























Interactive Weather Map New forecast layout! Learn more

10-Day Weather Forecast

Advertisements
Track Severe Weather on mobile